Disclaimer

Please do not use the information listed here in-flight or in-navigation, as they are not provided to us by the airports but are provided by volunteers, so they might be outdated.

Search


Regions


Airport information page

Radio informations:
Tower (TWR) - 118.3 MHz
Approach (APP) - 120.8 MHz

Airport informations:
Latitude: 39° 42' 01.97" N
Longitude: 066° 59' 01.78" E
Elevation: 2224 feet - 678 meters
Operating hours: 24 hour operations
Operating agency: Civil government, landing fees and diplomatic clearance may be required
Timezone: UTC+5
Fuel: Jet A1, without icing nhibitor.

Runway information:
09/27 - 10170 x 161 feet< - >3100 x 49 meters

Recent METARs:
UTSS 190100Z 14008KT 5000 BR NSC 05/00 Q1021 R27/70D NOSIG
UTSS 190130Z 12006KT 5000 BR NSC 04/00 Q1021 R09/70D NOSIG
UTSS 190200Z 08004KT 5000 BR NSC 03/M00 Q1021 R09/70D NOSIG

Airport on the map: